createdAt,value
2019-02-07T00:01:33.493Z,41.30
2019-02-07T00:04:04.241Z,37.30
2019-02-07T00:06:36.914Z,41.60
2019-02-07T00:09:09.329Z,33.60
2019-02-07T00:11:39.933Z,38.83
2019-02-07T00:14:10.624Z,43.80
2019-02-07T00:16:41.343Z,38.63
2019-02-07T00:19:12.075Z,39.03
2019-02-07T00:21:43.021Z,39.20
2019-02-07T00:24:13.738Z,39.07
2019-02-07T00:26:45.436Z,38.27
2019-02-07T00:29:16.180Z,40.03
2019-02-07T00:31:46.764Z,33.10
2019-02-07T00:34:17.620Z,41.77
2019-02-07T00:36:48.244Z,34.63
2019-02-07T00:39:19.043Z,35.03
2019-02-07T00:41:49.692Z,38.93
2019-02-07T00:44:20.316Z,34.40
2019-02-07T00:46:50.943Z,39.07
2019-02-07T00:49:22.652Z,37.03
2019-02-07T00:51:53.264Z,36.97
2019-02-07T00:54:23.993Z,35.67
2019-02-07T00:56:54.463Z,42.03
2019-02-07T00:59:25.132Z,39.17
2019-02-07T01:01:56.177Z,38.77
2019-02-07T01:04:26.804Z,42.77
2019-02-07T01:06:57.410Z,39.67
2019-02-07T01:09:27.918Z,41.10
2019-02-07T01:11:58.567Z,42.67
2019-02-07T01:14:29.693Z,40.73
2019-02-07T01:17:00.509Z,37.37
2019-02-07T01:19:31.326Z,33.80
2019-02-07T01:22:01.908Z,35.43
2019-02-07T01:24:32.537Z,32.33
2019-02-07T01:27:04.628Z,32.67
2019-02-07T01:29:35.771Z,39.10
2019-02-07T01:32:06.358Z,34.23
2019-02-07T01:34:36.960Z,33.67
2019-02-07T01:37:07.576Z,28.60
2019-02-07T01:39:38.209Z,40.43
2019-02-07T01:42:08.757Z,35.20
2019-02-07T01:44:39.727Z,38.90
2019-02-07T01:47:10.515Z,28.13
2019-02-07T01:49:41.076Z,37.57
2019-02-07T01:52:11.622Z,35.17
2019-02-07T01:54:42.192Z,41.33
2019-02-07T01:57:12.934Z,33.93
2019-02-07T01:59:43.992Z,40.13
2019-02-07T02:02:14.467Z,37.17
2019-02-07T02:04:44.999Z,43.17
2019-02-07T02:07:15.627Z,40.27
2019-02-07T02:09:47.817Z,38.13
2019-02-07T02:12:18.631Z,36.40
2019-02-07T02:14:49.262Z,35.50
2019-02-07T02:17:19.954Z,41.10
2019-02-07T02:19:50.913Z,37.87
2019-02-07T02:22:21.509Z,39.30
2019-02-07T02:24:55.352Z,40.93
2019-02-07T02:27:26.767Z,37.60
2019-02-07T02:29:57.328Z,36.27
2019-02-07T02:32:27.942Z,40.40
2019-02-07T02:34:58.653Z,36.37
2019-02-07T02:37:30.485Z,31.67
2019-02-07T02:40:01.527Z,33.23
2019-02-07T02:42:32.025Z,30.63
2019-02-07T02:45:02.672Z,39.17
2019-02-07T02:47:33.199Z,37.60
2019-02-07T02:50:05.737Z,30.67
2019-02-07T02:52:36.598Z,36.07
2019-02-07T02:55:09.517Z,33.93
2019-02-07T02:57:40.120Z,34.23
2019-02-07T03:00:23.419Z,34.27
2019-02-07T03:03:01.642Z,35.33
2019-02-07T03:05:36.772Z,33.17
2019-02-07T03:08:24.711Z,29.97
2019-02-07T03:11:00.093Z,29.97
2019-02-07T03:13:55.325Z,32.97
2019-02-07T03:16:29.775Z,28.93
2019-02-07T03:19:11.074Z,28.63
2019-02-07T03:21:43.192Z,29.30
2019-02-07T03:24:30.339Z,29.37
2019-02-07T03:27:05.124Z,33.03
2019-02-07T03:29:43.918Z,29.40
2019-02-07T03:32:27.801Z,36.90
2019-02-07T03:35:00.043Z,34.13
2019-02-07T03:37:41.297Z,32.87
2019-02-07T03:40:21.993Z,35.57
2019-02-07T03:42:57.128Z,32.57
2019-02-07T03:45:35.481Z,32.97
2019-02-07T03:48:16.790Z,31.60
2019-02-07T03:50:51.982Z,28.80
2019-02-07T03:53:24.275Z,33.17
2019-02-07T03:56:13.025Z,28.03
2019-02-07T03:59:01.508Z,30.27
2019-02-07T04:01:39.673Z,28.63
2019-02-07T04:04:17.833Z,29.33
2019-02-07T04:06:50.069Z,28.20
2019-02-07T04:09:22.242Z,27.13
2019-02-07T04:11:54.416Z,30.43
2019-02-07T04:14:32.450Z,30.30
2019-02-07T04:17:19.135Z,32.40
2019-02-07T04:19:51.799Z,31.57
2019-02-07T04:22:24.044Z,36.70
2019-02-07T04:25:12.121Z,32.40
2019-02-07T04:27:50.101Z,30.53
2019-02-07T04:30:25.394Z,30.63
2019-02-07T04:33:25.728Z,30.87
2019-02-07T04:38:56.767Z,32.93
2019-02-07T04:41:47.499Z,30.53
2019-02-07T04:44:34.671Z,27.13
2019-02-07T04:47:23.098Z,29.23
2019-02-07T04:49:57.915Z,33.40
2019-02-07T04:52:44.889Z,44.37
2019-02-07T04:55:17.130Z,37.20
2019-02-07T04:57:52.023Z,31.97
2019-02-07T05:00:33.274Z,27.77
2019-02-07T05:03:22.144Z,28.27
2019-02-07T05:06:07.158Z,30.07
2019-02-07T05:08:41.381Z,27.17
2019-02-07T05:11:19.352Z,33.60
2019-02-07T05:14:01.443Z,34.70
2019-02-07T05:16:39.869Z,32.77
2019-02-07T05:19:16.334Z,27.23
2019-02-07T05:22:05.199Z,26.97
2019-02-07T05:24:46.915Z,30.17
2019-02-07T05:27:25.008Z,25.00
2019-02-07T05:29:57.340Z,30.85
2019-02-07T05:32:38.786Z,29.07
2019-02-07T05:35:22.659Z,31.77
2019-02-07T05:37:55.248Z,30.33
2019-02-07T05:40:27.348Z,33.23
2019-02-07T05:43:15.660Z,29.32
2019-02-07T05:45:50.434Z,28.53
2019-02-07T05:48:25.580Z,33.03
2019-02-07T05:51:12.619Z,19.83
2019-02-07T05:53:45.028Z,30.27
2019-02-07T05:56:32.882Z,32.43
2019-02-07T05:59:14.172Z,31.17
2019-02-07T06:01:46.294Z,29.20
2019-02-07T06:04:36.361Z,35.17
2019-02-07T06:07:08.666Z,28.37
2019-02-07T06:09:56.781Z,29.87
2019-02-07T06:12:29.195Z,28.60
2019-02-07T06:15:01.662Z,38.00
2019-02-07T06:17:49.443Z,52.87
2019-02-07T06:20:21.542Z,39.33
2019-02-07T06:22:54.101Z,42.23
2019-02-07T06:25:42.624Z,39.43
2019-02-07T06:28:30.855Z,33.43
2019-02-07T06:31:06.136Z,29.72
2019-02-07T06:33:51.665Z,40.08
2019-02-07T06:36:30.362Z,39.07
2019-02-07T06:39:14.761Z,34.73
2019-02-07T06:41:49.652Z,36.63
2019-02-07T06:44:24.971Z,35.57
2019-02-07T06:46:57.154Z,38.63
2019-02-07T06:49:45.421Z,33.73
2019-02-07T06:52:23.397Z,37.27
2019-02-07T06:55:10.557Z,36.20
2019-02-07T06:57:45.998Z,34.13
2019-02-07T07:00:21.719Z,30.97
2019-02-07T07:03:12.419Z,41.17
2019-02-07T07:05:44.711Z,38.80
2019-02-07T07:08:22.901Z,44.97
2019-02-07T07:10:55.787Z,42.20
2019-02-07T07:13:43.103Z,46.10
2019-02-07T07:16:16.232Z,35.77
2019-02-07T07:18:54.623Z,44.27
2019-02-07T07:21:43.031Z,51.67
2019-02-07T07:24:31.071Z,64.43
2019-02-07T07:27:03.377Z,63.63
2019-02-07T07:29:47.462Z,58.27
2019-02-07T07:32:35.574Z,52.13
2019-02-07T07:35:14.027Z,48.13
2019-02-07T07:38:02.270Z,47.93
2019-02-07T07:40:43.710Z,48.07
2019-02-07T07:43:30.378Z,49.27
2019-02-07T07:46:17.220Z,36.53
2019-02-07T07:48:49.427Z,41.83
2019-02-07T07:51:36.294Z,39.30
2019-02-07T07:54:11.975Z,40.37
2019-02-07T07:57:04.574Z,40.03
2019-02-07T07:59:36.853Z,41.67
2019-02-07T08:02:17.650Z,35.47
2019-02-07T08:04:53.925Z,37.50
2019-02-07T08:07:32.060Z,33.17
2019-02-07T08:10:23.890Z,33.97
2019-02-07T08:12:56.021Z,32.13
2019-02-07T08:15:43.857Z,32.40
2019-02-07T08:18:32.007Z,34.93
2019-02-07T08:21:04.204Z,29.83
2019-02-07T08:23:48.296Z,33.70
2019-02-07T08:26:23.496Z,29.87
2019-02-07T08:29:01.921Z,28.13
2019-02-07T08:31:36.885Z,31.07
2019-02-07T08:34:17.705Z,29.70
2019-02-07T08:37:08.521Z,25.17
2019-02-07T08:39:55.531Z,26.37
2019-02-07T08:42:43.459Z,23.77
2019-02-07T08:45:20.214Z,24.80
2019-02-07T08:47:59.057Z,31.23
2019-02-07T08:50:37.133Z,30.33
2019-02-07T08:53:25.957Z,30.93
2019-02-07T08:55:58.221Z,26.67
2019-02-07T08:58:32.971Z,25.80
2019-02-07T09:01:11.428Z,36.70
2019-02-07T09:03:45.810Z,25.50
2019-02-07T09:06:17.993Z,29.20
2019-02-07T09:09:08.444Z,24.47
2019-02-07T09:11:41.114Z,26.23
2019-02-07T09:14:29.359Z,29.63
2019-02-07T09:17:14.418Z,28.20
2019-02-07T09:19:54.048Z,31.63
2019-02-07T09:22:31.867Z,30.47
2019-02-07T09:25:12.963Z,31.73
2019-02-07T09:27:53.270Z,29.90
2019-02-07T09:30:28.437Z,32.47
2019-02-07T09:33:19.991Z,33.10
2019-02-07T09:36:09.998Z,25.47
2019-02-07T09:38:57.759Z,26.27
2019-02-07T09:41:45.951Z,22.27
2019-02-07T09:44:37.915Z,22.37
2019-02-07T09:47:11.154Z,23.20
2019-02-07T09:49:59.507Z,21.67
2019-02-07T09:52:31.626Z,20.73
2019-02-07T09:55:05.165Z,20.27
2019-02-07T09:57:40.490Z,18.10
2019-02-07T10:00:34.578Z,18.47
2019-02-07T10:03:07.257Z,20.73
2019-02-07T10:05:39.468Z,23.47
2019-02-07T10:08:26.718Z,24.53
2019-02-07T10:11:03.594Z,22.10
2019-02-07T10:13:57.278Z,21.37
2019-02-07T10:16:41.603Z,18.53
2019-02-07T10:19:14.122Z,18.47
2019-02-07T10:21:46.389Z,19.00
2019-02-07T10:24:35.174Z,18.47
2019-02-07T10:27:17.990Z,17.63
2019-02-07T10:29:50.079Z,15.97
2019-02-07T10:32:49.346Z,15.63
2019-02-07T10:35:29.140Z,15.97
2019-02-07T10:38:12.865Z,16.63
2019-02-07T10:40:57.807Z,14.37
2019-02-07T10:43:36.044Z,14.30
2019-02-07T10:46:24.651Z,14.50
2019-02-07T10:49:09.265Z,15.87
2019-02-07T10:51:50.247Z,16.63
2019-02-07T10:54:22.503Z,15.33
2019-02-07T10:56:57.721Z,15.27
2019-02-07T10:59:38.639Z,15.43
2019-02-07T11:02:23.122Z,14.73
2019-02-07T11:07:49.419Z,15.53
2019-02-07T11:10:24.685Z,14.87
2019-02-07T11:13:13.022Z,13.33
2019-02-07T11:16:00.039Z,12.97
2019-02-07T11:18:55.682Z,14.90
2019-02-07T11:21:40.395Z,12.43
2019-02-07T11:24:18.080Z,11.63
2019-02-07T11:26:55.975Z,12.03
2019-02-07T11:29:34.262Z,11.57
2019-02-07T11:32:06.654Z,10.20
2019-02-07T11:34:47.911Z,11.20
2019-02-07T11:37:29.260Z,11.37
2019-02-07T11:40:19.902Z,10.50
2019-02-07T11:43:09.312Z,13.03
2019-02-07T11:45:57.461Z,12.93
2019-02-07T11:48:30.192Z,10.90
2019-02-07T11:51:04.135Z,10.30
2019-02-07T11:53:41.739Z,11.80
2019-02-07T11:56:16.696Z,12.63
2019-02-07T11:59:05.481Z,15.10
2019-02-07T12:01:43.693Z,11.43
2019-02-07T12:04:16.032Z,11.80
2019-02-07T12:07:04.710Z,12.10
2019-02-07T12:09:50.235Z,12.20
2019-02-07T12:12:28.519Z,12.07
2019-02-07T12:15:17.103Z,12.77
2019-02-07T12:17:55.189Z,15.67
2019-02-07T12:20:46.227Z,12.90
2019-02-07T12:23:18.252Z,15.20
2019-02-07T12:25:50.825Z,14.63
2019-02-07T12:28:31.946Z,16.33
2019-02-07T12:31:16.496Z,13.27
2019-02-07T12:33:48.645Z,12.47
2019-02-07T12:36:38.160Z,12.17
2019-02-07T12:39:11.817Z,15.40
2019-02-07T12:41:44.081Z,14.00
2019-02-07T12:44:28.978Z,10.47
2019-02-07T12:47:04.227Z,14.23
2019-02-07T12:49:52.878Z,10.67
2019-02-07T12:52:27.929Z,10.60
2019-02-07T12:55:12.906Z,14.30
2019-02-07T12:57:45.551Z,11.97
2019-02-07T13:00:36.340Z,15.00
2019-02-07T13:03:24.643Z,12.60
2019-02-07T13:06:06.029Z,10.70
2019-02-07T13:08:40.924Z,11.50
2019-02-07T13:11:22.307Z,11.60
2019-02-07T13:14:10.342Z,11.77
2019-02-07T13:16:45.196Z,12.97
2019-02-07T13:19:17.490Z,12.63
2019-02-07T13:21:55.409Z,12.67
2019-02-07T13:24:42.514Z,13.13
2019-02-07T13:27:20.637Z,13.30
2019-02-07T13:29:58.520Z,13.83
2019-02-07T13:32:30.651Z,15.83
2019-02-07T13:35:11.635Z,12.77
2019-02-07T13:37:44.590Z,13.63
2019-02-07T13:40:33.185Z,14.50
2019-02-07T13:43:11.392Z,20.03
2019-02-07T13:45:44.454Z,14.77
2019-02-07T13:48:19.618Z,15.67
2019-02-07T13:51:00.973Z,18.87
2019-02-07T13:53:33.116Z,13.07
2019-02-07T13:56:06.674Z,19.93
2019-02-07T13:58:39.326Z,15.20
2019-02-07T14:01:23.513Z,14.83
2019-02-07T14:04:08.994Z,14.13
2019-02-07T14:06:41.579Z,16.87
2019-02-07T14:09:22.379Z,20.50
2019-02-07T14:11:57.151Z,14.73
2019-02-07T14:14:45.396Z,15.87
2019-02-07T14:17:26.243Z,12.97
2019-02-07T14:20:14.033Z,15.27
2019-02-07T14:23:02.733Z,16.37
2019-02-07T14:25:44.323Z,18.87
2019-02-07T14:28:16.574Z,14.33
2019-02-07T14:30:52.056Z,19.23
2019-02-07T14:33:26.724Z,12.93
2019-02-07T14:36:20.813Z,13.13
2019-02-07T14:38:58.652Z,14.63
2019-02-07T14:41:40.428Z,16.37
2019-02-07T14:44:14.984Z,13.80
2019-02-07T14:46:48.472Z,12.93
2019-02-07T14:49:19.275Z,13.90
2019-02-07T14:51:50.081Z,14.20
2019-02-07T14:54:20.716Z,12.40
2019-02-07T14:56:51.378Z,15.50
2019-02-07T14:59:22.052Z,13.33
2019-02-07T15:01:52.561Z,15.70
2019-02-07T15:04:23.312Z,20.33
2019-02-07T15:06:55.460Z,17.57
2019-02-07T15:09:26.055Z,18.70
2019-02-07T15:11:56.610Z,20.97
2019-02-07T15:14:27.532Z,16.10
2019-02-07T15:16:58.318Z,17.17
2019-02-07T15:19:28.971Z,16.13
2019-02-07T15:22:01.014Z,15.77
2019-02-07T15:24:31.593Z,20.60
2019-02-07T15:27:02.068Z,14.40
2019-02-07T15:29:33.353Z,15.80
2019-02-07T15:32:04.385Z,22.53
2019-02-07T15:34:35.470Z,22.60
2019-02-07T15:37:06.039Z,22.73
2019-02-07T15:39:36.611Z,19.73
2019-02-07T15:42:07.196Z,25.57
2019-02-07T15:44:38.323Z,23.67
2019-02-07T15:47:10.804Z,19.00
2019-02-07T15:49:41.593Z,15.80
2019-02-07T15:52:12.429Z,20.00
2019-02-07T15:54:43.116Z,21.77
2019-02-07T15:57:14.206Z,24.53
2019-02-07T15:59:46.493Z,29.00
2019-02-07T16:02:17.275Z,18.43
2019-02-07T16:04:47.871Z,19.80
2019-02-07T16:07:18.559Z,19.43
2019-02-07T16:09:49.306Z,15.70
2019-02-07T16:12:20.239Z,23.00
2019-02-07T16:14:50.908Z,20.83
2019-02-07T16:17:21.477Z,16.47
2019-02-07T16:19:52.051Z,18.73
2019-02-07T16:22:28.005Z,22.43
2019-02-07T16:24:58.670Z,21.13
2019-02-07T16:27:29.237Z,26.37
2019-02-07T16:29:59.852Z,19.87
2019-02-07T16:32:30.391Z,22.23
2019-02-07T16:35:01.116Z,30.53
2019-02-07T16:37:31.901Z,24.97
2019-02-07T16:40:03.626Z,25.47
2019-02-07T16:42:34.434Z,21.70
2019-02-07T16:45:09.387Z,22.47
2019-02-07T16:47:42.408Z,24.83
2019-02-07T16:50:31.622Z,24.47
2019-02-07T16:53:02.352Z,24.57
2019-02-07T16:55:33.008Z,30.07
2019-02-07T16:58:03.707Z,31.13
2019-02-07T17:00:36.947Z,29.37
2019-02-07T17:03:08.245Z,30.13
2019-02-07T17:05:38.980Z,27.87
2019-02-07T17:08:09.583Z,32.70
2019-02-07T17:10:41.798Z,31.30
2019-02-07T17:13:15.656Z,29.13
2019-02-07T17:15:46.544Z,26.63
2019-02-07T17:18:17.075Z,26.57
2019-02-07T17:20:47.736Z,29.03
2019-02-07T17:23:18.352Z,34.63
2019-02-07T17:25:49.227Z,30.53
2019-02-07T17:28:19.892Z,32.17
2019-02-07T17:30:50.445Z,29.53
2019-02-07T17:33:21.136Z,29.13
2019-02-07T17:35:52.980Z,36.50
2019-02-07T17:38:23.564Z,27.57
2019-02-07T17:40:54.470Z,29.67
2019-02-07T17:43:25.064Z,26.60
2019-02-07T17:45:55.652Z,30.20
2019-02-07T17:48:26.934Z,30.37
2019-02-07T17:50:57.475Z,34.60
2019-02-07T17:53:28.057Z,36.30
2019-02-07T17:55:58.470Z,34.70
2019-02-07T17:58:28.982Z,32.47
2019-02-07T18:01:06.817Z,33.60
2019-02-07T18:03:37.436Z,29.43
2019-02-07T18:06:08.359Z,36.50
2019-02-07T18:08:39.107Z,31.03
2019-02-07T18:11:09.715Z,29.07
2019-02-07T18:13:40.132Z,33.70
2019-02-07T18:16:10.743Z,32.87
2019-02-07T18:18:41.381Z,29.93
2019-02-07T18:21:12.677Z,28.63
2019-02-07T18:23:43.218Z,30.27
2019-02-07T18:26:13.788Z,28.70
2019-02-07T18:28:44.382Z,35.00
2019-02-07T18:31:15.321Z,29.90
2019-02-07T18:33:46.323Z,25.03
2019-02-07T18:36:16.843Z,25.77
2019-02-07T18:38:47.425Z,28.80
2019-02-07T18:41:18.506Z,31.53
2019-02-07T18:43:49.047Z,27.23
2019-02-07T18:46:19.720Z,30.30
2019-02-07T18:48:52.791Z,33.07
2019-02-07T18:51:23.315Z,29.90
2019-02-07T18:53:53.890Z,28.73
2019-02-07T18:56:24.327Z,36.03
2019-02-07T18:58:55.841Z,23.47
2019-02-07T19:01:26.332Z,25.87
2019-02-07T19:03:56.820Z,25.10
2019-02-07T19:06:27.449Z,27.50
2019-02-07T19:08:58.003Z,25.60
2019-02-07T19:11:28.565Z,27.97
2019-02-07T19:13:59.051Z,29.37
2019-02-07T19:16:30.118Z,30.60
2019-02-07T19:19:00.601Z,27.20
2019-02-07T19:21:31.449Z,27.63
2019-02-07T19:24:01.887Z,28.40
2019-02-07T19:26:32.434Z,34.73
2019-02-07T19:29:02.982Z,31.20
2019-02-07T19:31:33.456Z,33.43
2019-02-07T19:34:05.518Z,29.27
2019-02-07T19:36:36.059Z,31.47
2019-02-07T19:39:09.673Z,31.77
2019-02-07T19:41:40.703Z,27.30
2019-02-07T19:44:12.523Z,31.93
2019-02-07T19:46:44.137Z,31.00
2019-02-07T19:49:15.751Z,31.57
2019-02-07T19:51:49.313Z,28.40
2019-02-07T19:54:20.637Z,29.13
2019-02-07T19:56:51.422Z,31.40
2019-02-07T19:59:22.346Z,30.03
2019-02-07T20:01:53.385Z,27.33
2019-02-07T20:04:26.375Z,32.07
2019-02-07T20:06:57.227Z,33.67
2019-02-07T20:09:28.452Z,29.60
2019-02-07T20:11:59.218Z,32.73
2019-02-07T20:14:30.087Z,31.73
2019-02-07T20:17:01.037Z,37.23
2019-02-07T20:19:32.640Z,36.20
2019-02-07T20:22:03.752Z,32.70
2019-02-07T20:24:45.456Z,31.90
2019-02-07T20:27:07.035Z,34.70
2019-02-07T20:29:38.161Z,35.90
2019-02-07T20:32:08.830Z,36.23
2019-02-07T20:34:39.896Z,33.13
2019-02-07T20:37:10.417Z,32.17
2019-02-07T20:39:40.908Z,39.63
2019-02-07T20:42:11.461Z,33.10
2019-02-07T20:44:41.876Z,27.47
2019-02-07T20:47:12.504Z,31.70
2019-02-07T20:49:43.906Z,37.23
2019-02-07T20:52:14.468Z,28.50
2019-02-07T20:54:44.944Z,30.73
2019-02-07T20:57:15.331Z,32.23
2019-02-07T20:59:45.815Z,30.30
2019-02-07T21:02:16.417Z,32.70
2019-02-07T21:04:46.976Z,33.43
2019-02-07T21:07:17.504Z,33.17
2019-02-07T21:09:47.970Z,37.30
2019-02-07T21:12:18.500Z,36.00
2019-02-07T21:14:48.924Z,40.30
2019-02-07T21:17:19.480Z,35.90
2019-02-07T21:19:52.454Z,37.20
2019-02-07T21:22:23.278Z,30.57
2019-02-07T21:24:53.768Z,34.20
2019-02-07T21:27:24.296Z,35.23
2019-02-07T21:29:55.760Z,32.93
2019-02-07T21:32:26.213Z,35.07
2019-02-07T21:34:56.820Z,37.00
2019-02-07T21:37:27.512Z,33.10
2019-02-07T21:39:58.101Z,28.67
2019-02-07T21:42:28.535Z,32.83
2019-02-07T21:44:59.087Z,37.43
2019-02-07T21:47:29.620Z,33.60
2019-02-07T21:50:02.126Z,37.57
2019-02-07T21:52:33.702Z,34.37
2019-02-07T21:55:07.494Z,31.70
2019-02-07T21:57:38.025Z,30.70
2019-02-07T22:00:27.813Z,23.37
2019-02-07T22:02:58.506Z,30.70
2019-02-07T22:05:29.439Z,28.83
2019-02-07T22:07:59.936Z,33.10
2019-02-07T22:10:30.825Z,33.07
2019-02-07T22:13:01.326Z,31.27
2019-02-07T22:15:33.126Z,34.90
2019-02-07T22:18:03.738Z,34.00
2019-02-07T22:20:34.246Z,32.00
2019-02-07T22:23:05.560Z,33.67
2019-02-07T22:25:36.132Z,34.43
2019-02-07T22:28:07.234Z,32.87
2019-02-07T22:30:38.499Z,31.70
2019-02-07T22:33:09.598Z,33.20
2019-02-07T22:35:40.745Z,32.43
2019-02-07T22:38:11.481Z,32.57
2019-02-07T22:40:42.014Z,34.97
2019-02-07T22:43:12.807Z,33.00
2019-02-07T22:45:43.295Z,29.47
2019-02-07T22:48:13.807Z,31.47
2019-02-07T22:50:45.865Z,35.47
2019-02-07T22:53:16.292Z,32.20
2019-02-07T22:55:47.073Z,32.33
2019-02-07T22:58:17.705Z,32.83
2019-02-07T23:01:07.932Z,37.90
2019-02-07T23:03:38.536Z,31.50
2019-02-07T23:06:09.462Z,29.87
2019-02-07T23:08:40.131Z,36.93
2019-02-07T23:11:10.906Z,35.30
2019-02-07T23:13:41.446Z,34.43
2019-02-07T23:16:12.319Z,37.43
2019-02-07T23:18:43.154Z,30.67
2019-02-07T23:21:13.931Z,30.90
2019-02-07T23:23:44.626Z,32.80
2019-02-07T23:26:15.125Z,34.17
2019-02-07T23:28:45.755Z,31.67
2019-02-07T23:31:19.288Z,30.27
2019-02-07T23:33:48.995Z,33.47
2019-02-07T23:36:19.620Z,33.63
2019-02-07T23:38:50.285Z,33.37
2019-02-07T23:41:21.695Z,29.57
2019-02-07T23:43:52.154Z,33.60
2019-02-07T23:46:23.129Z,32.83
2019-02-07T23:48:53.693Z,32.93
2019-02-07T23:51:24.356Z,34.33
2019-02-07T23:53:54.961Z,37.07
2019-02-07T23:56:26.233Z,35.80
2019-02-07T23:58:56.876Z,34.47
